Time;durP1;ratioP1;P1;durP2;ratioP2;P2;SDS_P1;SDS_P2;PMS_P1;PMS_P2;Temp;Humidity;BMP_temperature;BMP_pressure;BME280_temperature;BME280_humidity;BME280_pressure;Samples;Min_cycle;Max_cycle;Signal;HPM_P1;HPM_P2
2023/07/21 00:02:25;;;;;;;2.83;2.50;;;16.00;63.90;;;;;;5038337;28;20425;-59
2023/07/21 00:04:51;;;;;;;4.93;2.90;;;15.90;63.90;;;;;;5039507;28;20456;-59
2023/07/21 00:07:17;;;;;;;5.13;2.60;;;15.90;64.00;;;;;;5041194;28;21108;-59
2023/07/21 00:09:43;;;;;;;6.93;3.00;;;16.00;64.10;;;;;;5039200;28;20200;-59
2023/07/21 00:12:09;;;;;;;4.23;3.10;;;16.00;64.30;;;;;;5033422;28;20440;-59
2023/07/21 00:14:35;;;;;;;4.43;2.90;;;16.00;63.90;;;;;;5041533;28;20171;-58
2023/07/21 00:17:04;;;;;;;3.83;3.37;;;15.90;63.80;;;;;;5040706;28;20191;-59
2023/07/21 00:19:30;;;;;;;4.00;3.13;;;15.90;64.10;;;;;;5038060;28;20433;-58
2023/07/21 00:21:56;;;;;;;6.03;2.77;;;15.90;64.50;;;;;;5034853;28;20442;-59
2023/07/21 00:24:21;;;;;;;5.03;2.97;;;16.00;65.20;;;;;;5040613;28;20188;-58
2023/07/21 00:26:47;;;;;;;11.83;3.10;;;16.00;66.20;;;;;;5047127;28;20202;-59
2023/07/21 00:29:12;;;;;;;4.40;2.90;;;16.00;65.80;;;;;;5043194;28;20249;-58
2023/07/21 00:31:46;;;;;;;11.43;3.13;;;15.90;65.60;;;;;;5037730;28;20333;-59
2023/07/21 00:34:12;;;;;;;7.50;3.10;;;15.90;65.30;;;;;;5039182;28;20199;-57
2023/07/21 00:36:38;;;;;;;2.93;2.57;;;15.90;65.20;;;;;;5041252;28;20446;-58
2023/07/21 00:39:03;;;;;;;4.60;3.00;;;15.90;64.70;;;;;;5040795;28;21313;-58
2023/07/21 00:41:29;;;;;;;3.00;2.63;;;15.90;64.50;;;;;;5039534;28;20186;-59
2023/07/21 00:43:55;;;;;;;4.13;2.87;;;15.90;64.30;;;;;;5042932;28;20630;-58
2023/07/21 00:46:23;;;;;;;3.23;2.70;;;15.90;64.30;;;;;;5043980;28;20202;-58
2023/07/21 00:48:49;;;;;;;3.87;2.67;;;15.90;64.60;;;;;;5045091;28;20185;-58
2023/07/21 00:51:15;;;;;;;5.70;3.23;;;15.80;64.40;;;;;;5030791;28;20453;-58
2023/07/21 00:53:40;;;;;;;4.03;2.90;;;15.70;64.70;;;;;;5035765;28;20442;-60
2023/07/21 00:56:06;;;;;;;3.73;2.90;;;15.70;64.90;;;;;;5039314;28;20198;-57
2023/07/21 00:58:32;;;;;;;6.20;3.20;;;15.70;65.90;;;;;;5046001;28;20515;-56
2023/07/21 01:00:57;;;;;;;4.67;3.10;;;15.70;66.30;;;;;;5045341;28;20678;-58
2023/07/21 01:03:23;;;;;;;3.80;3.00;;;15.70;65.80;;;;;;5040064;28;20168;-59
2023/07/21 01:05:53;;;;;;;5.80;2.93;;;15.70;66.10;;;;;;5046535;28;20175;-59
2023/07/21 01:08:22;;;;;;;4.17;3.10;;;15.70;67.20;;;;;;5043335;28;20183;-57
2023/07/21 01:10:50;;;;;;;4.20;3.00;;;15.80;67.60;;;;;;5041961;28;20457;-58
2023/07/21 01:13:17;;;;;;;4.13;2.60;;;15.80;67.40;;;;;;5046754;28;20426;-58
2023/07/21 01:15:53;;;;;;;3.97;3.13;;;15.90;67.00;;;;;;5041039;28;20513;-59
2023/07/21 01:18:19;;;;;;;5.23;3.10;;;15.90;67.20;;;;;;5035913;28;20516;-58
2023/07/21 01:20:47;;;;;;;4.07;2.73;;;15.90;67.70;;;;;;5041479;28;20483;-58
2023/07/21 01:23:19;;;;;;;3.97;2.63;;;15.90;67.50;;;;;;5041192;28;20964;-58
2023/07/21 01:25:46;;;;;;;3.20;2.90;;;15.90;67.40;;;;;;5040064;28;21190;-59
2023/07/21 01:28:14;;;;;;;4.73;2.60;;;15.80;67.60;;;;;;5040319;28;20454;-60
2023/07/21 01:30:41;;;;;;;6.30;2.40;;;15.80;67.40;;;;;;5037711;28;20516;-59
2023/07/21 01:33:08;;;;;;;4.73;2.67;;;15.80;67.30;;;;;;5040584;28;20426;-59
2023/07/21 01:35:34;;;;;;;3.03;2.73;;;15.70;68.30;;;;;;5039803;28;20882;-58
2023/07/21 01:38:03;;;;;;;3.23;2.50;;;15.70;67.20;;;;;;5032948;28;20473;-58
2023/07/21 01:40:29;;;;;;;10.47;3.10;;;15.70;67.30;;;;;;5040897;28;20445;-58
2023/07/21 01:42:56;;;;;;;3.07;2.70;;;15.70;66.30;;;;;;5026351;28;20422;-59
2023/07/21 01:45:22;;;;;;;3.83;2.57;;;15.70;66.60;;;;;;5040677;28;20434;-59
2023/07/21 01:47:47;;;;;;;3.40;2.73;;;15.70;67.10;;;;;;5038613;28;20514;-59
2023/07/21 01:50:17;;;;;;;4.20;2.80;;;15.70;67.40;;;;;;5039222;28;20199;-59
2023/07/21 01:52:45;;;;;;;9.03;3.47;;;15.70;67.10;;;;;;5034961;28;20186;-58
2023/07/21 01:55:16;;;;;;;4.40;3.27;;;15.70;67.10;;;;;;5032433;28;20430;-59
2023/07/21 01:57:46;;;;;;;3.53;2.93;;;15.70;67.10;;;;;;5030111;28;20490;-59
2023/07/21 02:00:14;;;;;;;3.20;2.90;;;15.70;67.90;;;;;;5028658;28;20424;-58
2023/07/21 02:02:41;;;;;;;5.33;3.10;;;15.70;68.30;;;;;;5024830;28;20437;-58
2023/07/21 02:05:18;;;;;;;5.17;2.73;;;15.60;68.60;;;;;;5018199;28;20460;-59
2023/07/21 02:07:44;;;;;;;4.07;2.90;;;15.50;69.20;;;;;;5021072;28;20544;-59
2023/07/21 02:10:10;;;;;;;3.53;2.73;;;15.50;70.00;;;;;;5021713;28;20485;-58
2023/07/21 02:12:35;;;;;;;6.13;3.13;;;15.40;70.90;;;;;;5027515;28;20516;-59
2023/07/21 02:15:01;;;;;;;6.03;3.10;;;15.40;71.70;;;;;;5023949;28;20186;-58
2023/07/21 02:17:27;;;;;;;6.87;3.10;;;15.40;72.40;;;;;;5033666;28;20479;-58
2023/07/21 02:19:52;;;;;;;4.40;2.80;;;15.40;72.90;;;;;;5025128;28;20578;-59
2023/07/21 02:22:18;;;;;;;5.63;3.17;;;15.40;72.70;;;;;;5038329;28;20226;-58
2023/07/21 02:24:43;;;;;;;3.43;3.13;;;15.30;72.70;;;;;;5032396;28;21009;-59
2023/07/21 02:27:09;;;;;;;3.53;2.90;;;15.30;72.60;;;;;;5023027;28;20203;-58
2023/07/21 02:29:35;;;;;;;5.03;3.00;;;15.30;72.60;;;;;;5024725;28;20594;-58
2023/07/21 02:32:00;;;;;;;5.97;2.80;;;15.30;72.30;;;;;;5022389;28;20400;-59
2023/07/21 02:34:26;;;;;;;4.80;3.40;;;15.30;71.10;;;;;;5034839;28;20265;-59
2023/07/21 02:36:53;;;;;;;4.17;2.70;;;15.30;71.50;;;;;;5037660;28;20281;-59
2023/07/21 02:39:18;;;;;;;4.30;2.70;;;15.30;72.60;;;;;;5040949;28;20704;-59
2023/07/21 02:41:45;;;;;;;5.57;3.10;;;15.30;72.70;;;;;;5037957;28;20484;-58
2023/07/21 02:44:10;;;;;;;5.90;3.23;;;15.20;72.70;;;;;;5039486;28;20182;-58
2023/07/21 02:46:36;;;;;;;7.87;3.53;;;15.20;72.90;;;;;;5043970;28;20441;-58
2023/07/21 02:49:02;;;;;;;8.10;3.80;;;15.10;73.40;;;;;;5042140;28;20289;-58
2023/07/21 02:51:27;;;;;;;3.80;2.83;;;15.10;74.00;;;;;;5042880;28;20269;-59
2023/07/21 02:53:53;;;;;;;5.07;3.10;;;15.00;74.30;;;;;;5041420;28;20479;-58
2023/07/21 02:56:19;;;;;;;3.67;2.90;;;15.00;74.50;;;;;;5040326;28;20203;-58
2023/07/21 02:58:45;;;;;;;5.83;2.90;;;15.00;74.20;;;;;;5041446;28;20523;-58
2023/07/21 03:01:12;;;;;;;6.60;3.23;;;14.90;74.50;;;;;;5030032;28;20260;-59
2023/07/21 03:03:38;;;;;;;3.70;2.70;;;14.90;74.50;;;;;;5029314;28;20425;-58
2023/07/21 03:06:05;;;;;;;3.57;2.63;;;14.90;74.70;;;;;;5039249;28;20425;-58
2023/07/21 03:08:31;;;;;;;12.20;3.10;;;14.80;75.00;;;;;;5028099;28;20525;-57
2023/07/21 03:10:57;;;;;;;7.47;3.30;;;14.80;75.90;;;;;;5026215;28;20553;-59
2023/07/21 03:13:24;;;;;;;5.20;3.20;;;14.80;77.20;;;;;;5024736;28;20179;-59
2023/07/21 03:15:53;;;;;;;4.67;2.90;;;14.80;77.10;;;;;;5028984;28;20418;-58
2023/07/21 03:18:18;;;;;;;3.57;2.90;;;14.80;77.40;;;;;;5032080;28;20957;-59
2023/07/21 03:20:44;;;;;;;5.20;3.60;;;14.80;78.10;;;;;;5036565;28;20426;-58
2023/07/21 03:23:11;;;;;;;3.27;2.97;;;14.80;77.50;;;;;;5039626;28;20180;-58
2023/07/21 03:25:41;;;;;;;5.13;3.00;;;14.80;77.80;;;;;;5028243;28;20185;-59
2023/07/21 03:28:07;;;;;;;6.33;2.90;;;14.70;78.10;;;;;;5028683;28;20489;-58
2023/07/21 03:30:32;;;;;;;5.37;3.57;;;14.70;78.30;;;;;;5028896;28;20652;-58
2023/07/21 03:32:58;;;;;;;7.40;3.80;;;14.70;79.30;;;;;;5017247;28;20179;-57
2023/07/21 03:35:23;;;;;;;4.67;3.10;;;14.70;79.20;;;;;;5022729;28;20172;-58
2023/07/21 03:37:49;;;;;;;4.60;2.80;;;14.60;79.00;;;;;;5025608;28;20691;-58
2023/07/21 03:40:16;;;;;;;4.97;3.17;;;14.60;78.90;;;;;;5028866;28;20229;-57
2023/07/21 03:42:41;;;;;;;6.17;2.87;;;14.50;79.80;;;;;;5036380;28;20715;-57
2023/07/21 03:45:07;;;;;;;3.80;3.00;;;14.50;80.20;;;;;;5032282;28;20462;-58
2023/07/21 03:47:34;;;;;;;3.73;3.17;;;14.40;79.90;;;;;;5025783;28;20218;-57
2023/07/21 03:50:00;;;;;;;4.13;3.10;;;14.40;79.80;;;;;;5021427;28;20233;-58
2023/07/21 03:52:27;;;;;;;4.00;3.20;;;14.40;79.30;;;;;;5029930;28;21884;-56
2023/07/21 03:54:53;;;;;;;6.70;3.73;;;14.40;79.80;;;;;;5029601;28;20437;-54
2023/07/21 03:57:20;;;;;;;5.07;3.00;;;14.30;80.20;;;;;;5027133;28;20524;-54
2023/07/21 03:59:47;;;;;;;3.33;3.03;;;14.30;79.70;;;;;;5038187;28;20431;-54
2023/07/21 04:02:12;;;;;;;6.90;2.90;;;14.30;79.90;;;;;;5045961;28;21028;-54
2023/07/21 04:04:38;;;;;;;5.53;3.10;;;14.30;81.50;;;;;;5044876;28;20421;-54
2023/07/21 04:07:05;;;;;;;3.90;3.50;;;14.20;81.70;;;;;;5034513;28;20281;-55
2023/07/21 04:09:31;;;;;;;13.93;3.47;;;14.20;82.80;;;;;;5035978;28;20637;-58
2023/07/21 04:11:57;;;;;;;8.33;3.17;;;14.20;82.60;;;;;;5038553;28;20437;-58
2023/07/21 04:14:22;;;;;;;3.93;3.10;;;14.10;83.40;;;;;;5044676;28;20500;-58
2023/07/21 04:16:48;;;;;;;6.97;3.40;;;14.10;84.10;;;;;;5038997;28;20210;-57
2023/07/21 04:19:14;;;;;;;4.73;3.17;;;14.10;85.40;;;;;;5044698;28;20168;-57
2023/07/21 04:21:39;;;;;;;6.13;3.40;;;14.10;84.80;;;;;;5037751;28;20178;-57
2023/07/21 04:24:05;;;;;;;3.37;3.07;;;14.10;83.20;;;;;;5042253;28;20191;-60
2023/07/21 04:26:32;;;;;;;5.00;3.40;;;14.10;83.70;;;;;;5040690;28;20277;-58
2023/07/21 04:28:58;;;;;;;5.03;3.50;;;14.10;82.40;;;;;;5043445;28;20191;-57
2023/07/21 04:31:28;;;;;;;4.90;3.60;;;14.10;83.60;;;;;;5046479;28;20418;-58
2023/07/21 04:33:55;;;;;;;10.30;3.70;;;14.10;84.00;;;;;;5041549;28;20164;-58
2023/07/21 04:36:21;;;;;;;5.50;3.40;;;14.10;84.50;;;;;;5042330;28;20460;-58
2023/07/21 04:38:47;;;;;;;5.03;3.70;;;14.10;85.60;;;;;;5031093;28;20921;-56
2023/07/21 04:41:14;;;;;;;8.77;3.90;;;14.10;84.90;;;;;;5037482;28;20571;-57
2023/07/21 04:43:40;;;;;;;5.17;3.13;;;14.10;85.20;;;;;;5044819;28;20934;-56
2023/07/21 04:46:05;;;;;;;4.13;3.03;;;14.10;85.20;;;;;;5039746;28;20536;-59
2023/07/21 04:48:31;;;;;;;4.37;3.70;;;14.10;86.40;;;;;;5036995;28;20926;-56
2023/07/21 04:50:57;;;;;;;10.10;3.50;;;14.10;87.30;;;;;;5041862;28;20269;-60
2023/07/21 04:53:23;;;;;;;5.20;3.30;;;14.10;87.80;;;;;;5044604;28;20175;-58
2023/07/21 04:55:54;;;;;;;4.67;3.23;;;14.10;89.50;;;;;;5042496;28;20800;-58
2023/07/21 04:58:19;;;;;;;4.63;3.20;;;14.10;89.00;;;;;;5037345;28;20469;-57
2023/07/21 05:00:45;;;;;;;6.50;3.33;;;14.10;88.60;;;;;;5046226;28;20429;-58
2023/07/21 05:03:10;;;;;;;3.90;3.50;;;14.20;89.00;;;;;;5038878;28;20211;-57
2023/07/21 05:05:36;;;;;;;5.30;3.57;;;14.20;88.70;;;;;;5042589;28;20195;-58
2023/07/21 05:08:01;;;;;;;4.30;3.20;;;14.20;88.90;;;;;;5044343;28;20209;-58
2023/07/21 05:10:27;;;;;;;7.87;4.50;;;14.20;87.20;;;;;;5041068;28;20294;-57
2023/07/21 05:12:53;;;;;;;5.37;3.10;;;14.20;87.10;;;;;;5036879;28;20184;-59
2023/07/21 05:15:19;;;;;;;5.37;3.80;;;14.20;87.10;;;;;;5041070;28;20183;-58
2023/07/21 05:17:44;;;;;;;4.10;3.20;;;14.20;88.00;;;;;;5042266;28;20199;-58
2023/07/21 05:20:11;;;;;;;6.23;3.40;;;14.30;87.50;;;;;;5040114;28;20591;-58
2023/07/21 05:22:37;;;;;;;9.07;3.40;;;14.40;86.20;;;;;;5048500;28;20702;-59
2023/07/21 05:25:07;;;;;;;9.53;3.13;;;14.50;84.60;;;;;;5038763;28;20431;-58
2023/07/21 05:27:32;;;;;;;7.00;3.30;;;14.60;84.40;;;;;;5033370;28;20446;-58
2023/07/21 05:29:58;;;;;;;14.60;4.53;;;14.60;83.10;;;;;;5035023;28;20481;-59
2023/07/21 05:32:24;;;;;;;7.10;4.50;;;14.70;81.00;;;;;;5037182;28;20186;-58
2023/07/21 05:34:50;;;;;;;9.30;3.93;;;14.80;80.80;;;;;;5038228;28;20878;-59
2023/07/21 05:37:16;;;;;;;8.47;3.77;;;14.80;80.00;;;;;;5041409;28;20675;-57
2023/07/21 05:39:41;;;;;;;9.10;4.40;;;14.90;83.30;;;;;;5041650;28;20202;-57
2023/07/21 05:42:07;;;;;;;6.10;3.83;;;15.00;82.90;;;;;;5041904;28;20179;-56
2023/07/21 05:44:33;;;;;;;6.93;3.80;;;15.10;81.70;;;;;;5037413;28;20186;-58
2023/07/21 05:47:02;;;;;;;6.97;3.70;;;15.20;78.60;;;;;;5042321;28;20736;-59
2023/07/21 05:49:28;;;;;;;7.00;4.20;;;15.30;79.10;;;;;;5037444;28;20791;-58
2023/07/21 05:51:54;;;;;;;9.70;3.93;;;15.40;78.80;;;;;;5050929;28;20932;-57
2023/07/21 05:54:19;;;;;;;8.53;3.77;;;15.50;78.50;;;;;;5042487;28;20823;-57
2023/07/21 05:56:45;;;;;;;6.40;3.40;;;15.60;78.00;;;;;;5042018;28;20700;-57
2023/07/21 05:59:11;;;;;;;6.23;4.20;;;15.70;77.20;;;;;;5026925;28;20276;-59
2023/07/21 06:01:37;;;;;;;9.43;3.43;;;15.80;75.10;;;;;;5036581;28;20207;-57
2023/07/21 06:04:04;;;;;;;6.97;4.00;;;15.80;75.60;;;;;;5039372;28;20190;-57
2023/07/21 06:06:30;;;;;;;9.27;3.90;;;15.90;75.70;;;;;;5040213;28;20199;-57
2023/07/21 06:08:56;;;;;;;7.30;3.87;;;16.10;74.70;;;;;;5039946;28;20939;-58
2023/07/21 06:11:23;;;;;;;6.93;3.53;;;16.10;74.80;;;;;;5034751;28;20450;-56
2023/07/21 06:13:49;;;;;;;6.70;3.60;;;16.20;73.10;;;;;;5033501;28;20557;-59
2023/07/21 06:16:15;;;;;;;10.90;3.50;;;16.20;71.70;;;;;;5026768;28;20438;-53
2023/07/21 06:18:42;;;;;;;6.77;4.13;;;16.20;71.30;;;;;;5040455;28;20183;-53
2023/07/21 06:21:11;;;;;;;8.83;3.87;;;16.20;72.20;;;;;;5029538;28;20202;-53
2023/07/21 06:23:37;;;;;;;9.23;4.17;;;16.30;73.90;;;;;;5032946;28;20442;-53
2023/07/21 06:26:03;;;;;;;6.53;3.70;;;16.40;72.80;;;;;;5036851;28;20438;-52
2023/07/21 06:28:29;;;;;;;7.10;3.50;;;16.40;72.70;;;;;;5035706;28;21027;-58
2023/07/21 06:30:55;;;;;;;6.40;3.30;;;16.50;73.00;;;;;;5035560;28;20652;-58
2023/07/21 06:33:20;;;;;;;5.97;3.57;;;16.50;70.30;;;;;;5034578;28;20191;-57
2023/07/21 06:35:46;;;;;;;8.57;3.80;;;16.50;71.10;;;;;;5031980;28;20179;-57
2023/07/21 06:38:11;;;;;;;9.93;3.73;;;16.60;72.70;;;;;;5035518;28;20218;-57
2023/07/21 06:40:37;;;;;;;7.23;4.37;;;16.60;73.70;;;;;;5039873;28;20575;-58
2023/07/21 06:43:03;;;;;;;8.57;4.50;;;16.70;74.00;;;;;;5042755;28;20585;-57
2023/07/21 06:45:28;;;;;;;6.60;3.53;;;16.80;72.70;;;;;;5029406;28;20558;-61
2023/07/21 06:47:54;;;;;;;5.87;3.97;;;16.80;71.90;;;;;;5036741;28;20303;-57
2023/07/21 06:50:19;;;;;;;8.17;3.87;;;16.80;72.20;;;;;;5028413;28;20585;-57
2023/07/21 06:52:46;;;;;;;4.60;3.40;;;16.90;72.40;;;;;;5038824;28;20183;-57
2023/07/21 06:55:11;;;;;;;6.83;3.93;;;16.90;72.20;;;;;;5048401;28;20297;-57
2023/07/21 06:57:37;;;;;;;7.67;3.83;;;16.90;73.30;;;;;;5044442;28;21068;-58
2023/07/21 07:00:05;;;;;;;7.70;3.80;;;16.90;73.40;;;;;;5048060;28;20282;-57
2023/07/21 07:02:31;;;;;;;14.70;4.10;;;16.90;74.20;;;;;;5039241;28;20183;-58
2023/07/21 07:04:56;;;;;;;8.90;4.50;;;16.90;74.60;;;;;;5044734;28;20425;-58
2023/07/21 07:07:22;;;;;;;10.93;4.63;;;17.00;74.10;;;;;;5039144;28;20199;-57
2023/07/21 07:09:48;;;;;;;8.60;4.30;;;17.20;72.50;;;;;;5047773;28;20211;-57
2023/07/21 07:12:13;;;;;;;6.23;3.90;;;17.40;72.10;;;;;;5045502;28;20202;-57
2023/07/21 07:14:39;;;;;;;8.90;4.00;;;17.50;72.00;;;;;;5041065;28;20179;-56
2023/07/21 07:17:05;;;;;;;7.33;4.27;;;17.50;70.50;;;;;;5042496;28;20236;-57
2023/07/21 07:19:30;;;;;;;12.67;5.03;;;17.50;69.40;;;;;;5045276;28;20648;-58
2023/07/21 07:21:56;;;;;;;5.90;4.10;;;17.60;68.30;;;;;;5046809;28;20516;-57
2023/07/21 07:24:22;;;;;;;11.40;4.63;;;17.70;68.80;;;;;;5045105;28;20195;-58
2023/07/21 07:26:47;;;;;;;6.73;4.17;;;17.80;69.20;;;;;;5043736;28;20199;-58
2023/07/21 07:29:15;;;;;;;8.87;4.40;;;17.90;68.80;;;;;;5037351;28;20179;-57
2023/07/21 07:31:42;;;;;;;12.43;4.57;;;18.10;67.90;;;;;;5040542;28;20796;-58
2023/07/21 07:34:08;;;;;;;7.03;4.00;;;18.20;64.20;;;;;;5043557;28;20965;-58
2023/07/21 07:36:34;;;;;;;9.93;4.10;;;18.20;63.50;;;;;;5042876;28;20454;-57
2023/07/21 07:38:59;;;;;;;9.20;3.67;;;18.40;63.60;;;;;;5044273;28;20194;-58
2023/07/21 07:41:25;;;;;;;5.47;3.80;;;18.60;63.20;;;;;;5041747;28;20199;-59
2023/07/21 07:43:50;;;;;;;7.60;3.63;;;18.70;62.40;;;;;;5043460;28;20172;-58
2023/07/21 07:46:17;;;;;;;6.40;4.07;;;18.90;62.00;;;;;;5040146;28;20179;-57
2023/07/21 07:48:43;;;;;;;8.70;4.30;;;19.10;61.90;;;;;;5039310;28;20668;-58
2023/07/21 07:51:09;;;;;;;6.30;4.20;;;19.20;61.70;;;;;;5041498;28;20461;-58
2023/07/21 07:53:36;;;;;;;9.67;4.40;;;19.40;61.10;;;;;;5036166;28;20442;-58
2023/07/21 07:56:02;;;;;;;4.50;3.63;;;19.60;60.30;;;;;;5039769;28;20172;-58
2023/07/21 07:58:28;;;;;;;11.73;3.50;;;19.70;58.80;;;;;;5031522;28;20485;-58
2023/07/21 08:01:02;;;;;;;8.10;3.77;;;19.80;58.20;;;;;;5037080;28;20531;-59
2023/07/21 08:03:27;;;;;;;4.93;2.97;;;19.90;58.10;;;;;;5039500;28;20183;-57
2023/07/21 08:05:53;;;;;;;6.40;3.10;;;20.00;56.60;;;;;;5041633;28;20439;-57
2023/07/21 08:08:21;;;;;;;6.47;2.80;;;20.10;56.30;;;;;;5043283;28;20198;-59
2023/07/21 08:10:47;;;;;;;4.13;2.60;;;20.30;55.40;;;;;;5042394;28;20191;-58
2023/07/21 08:13:13;;;;;;;3.97;2.60;;;20.40;54.80;;;;;;5041588;28;20430;-59
2023/07/21 08:15:40;;;;;;;4.73;3.07;;;20.60;53.40;;;;;;5036907;28;20183;-58
2023/07/21 08:18:06;;;;;;;9.67;3.70;;;20.60;53.10;;;;;;5035379;28;20191;-58
2023/07/21 08:20:32;;;;;;;14.70;3.80;;;20.70;53.30;;;;;;5033343;28;20426;-58
2023/07/21 08:22:57;;;;;;;6.00;3.40;;;20.80;53.00;;;;;;5041130;28;20267;-58
2023/07/21 08:25:24;;;;;;;7.33;3.50;;;20.90;52.00;;;;;;5044416;28;20171;-59
2023/07/21 08:27:50;;;;;;;7.80;3.30;;;21.00;52.80;;;;;;5043709;28;20248;-59
2023/07/21 08:30:16;;;;;;;5.60;3.40;;;21.20;52.90;;;;;;5039557;28;20556;-58
2023/07/21 08:32:42;;;;;;;7.73;3.50;;;21.30;52.60;;;;;;5037790;28;20175;-58
2023/07/21 08:35:09;;;;;;;6.57;3.07;;;21.40;52.20;;;;;;5041161;28;20171;-59
2023/07/21 08:37:34;;;;;;;4.37;2.90;;;21.50;52.00;;;;;;5043113;28;20520;-59
2023/07/21 08:40:00;;;;;;;3.63;2.80;;;21.50;52.00;;;;;;5037975;28;20658;-58
2023/07/21 08:42:27;;;;;;;8.80;3.10;;;21.60;52.60;;;;;;5042412;28;20171;-57
2023/07/21 08:44:54;;;;;;;4.07;2.73;;;21.70;52.40;;;;;;5036426;28;20782;-59
2023/07/21 08:47:21;;;;;;;8.00;3.30;;;21.80;52.10;;;;;;5037709;28;20946;-58
2023/07/21 08:49:47;;;;;;;4.30;2.40;;;21.80;51.90;;;;;;5040839;28;20458;-58
2023/07/21 08:52:13;;;;;;;4.43;2.60;;;21.90;50.10;;;;;;5044245;28;20981;-57
2023/07/21 08:54:39;;;;;;;3.40;2.37;;;22.00;49.80;;;;;;5033011;28;20438;-58
2023/07/21 08:57:05;;;;;;;4.20;2.57;;;22.10;50.20;;;;;;5040527;28;20592;-57
2023/07/21 08:59:31;;;;;;;5.33;2.53;;;22.30;50.20;;;;;;5035571;28;20244;-58
2023/07/21 09:01:57;;;;;;;7.67;2.80;;;22.30;49.00;;;;;;5039913;28;20690;-58
2023/07/21 09:04:24;;;;;;;4.53;2.43;;;22.40;48.30;;;;;;5028366;28;20179;-58
2023/07/21 09:06:56;;;;;;;4.83;2.03;;;22.50;47.20;;;;;;5023737;28;20524;-58
2023/07/21 09:09:23;;;;;;;3.70;2.60;;;22.60;47.20;;;;;;5039070;28;21043;-57
2023/07/21 09:11:49;;;;;;;4.67;2.43;;;22.70;46.80;;;;;;5033877;28;20429;-58
2023/07/21 09:14:16;;;;;;;6.40;2.80;;;22.80;46.00;;;;;;5033202;28;20814;-57
2023/07/21 09:16:43;;;;;;;5.80;2.13;;;22.80;45.70;;;;;;5041986;28;20533;-55
2023/07/21 09:19:09;;;;;;;6.07;2.57;;;22.70;45.60;;;;;;5038391;28;20495;-58
2023/07/21 09:21:36;;;;;;;3.80;2.10;;;22.60;46.50;;;;;;5040724;28;20433;-59
2023/07/21 09:24:02;;;;;;;3.03;2.33;;;22.50;45.90;;;;;;5040974;28;20422;-58
2023/07/21 09:26:28;;;;;;;3.30;2.57;;;22.30;46.00;;;;;;5040275;28;20995;-56
2023/07/21 09:28:54;;;;;;;5.83;2.40;;;22.40;45.70;;;;;;5035568;28;20433;-57
2023/07/21 09:31:31;;;;;;;3.90;2.50;;;22.50;46.40;;;;;;5043115;28;20199;-58
2023/07/21 09:34:05;;;;;;;5.00;2.83;;;22.60;45.90;;;;;;5041434;28;20240;-59
2023/07/21 09:36:31;;;;;;;2.50;2.30;;;22.60;46.30;;;;;;5036331;28;20771;-58
2023/07/21 09:39:07;;;;;;;3.37;2.30;;;22.70;47.00;;;;;;5044787;28;20503;-56
2023/07/21 09:41:34;;;;;;;5.77;2.70;;;22.80;47.70;;;;;;5040505;28;20793;-59
2023/07/21 09:44:00;;;;;;;3.63;2.20;;;22.80;47.90;;;;;;5038020;28;20456;-58
2023/07/21 09:46:26;;;;;;;3.80;2.50;;;22.90;47.90;;;;;;5043752;28;20450;-58
2023/07/21 09:48:53;;;;;;;2.63;2.20;;;22.90;46.90;;;;;;5032822;28;20449;-58
2023/07/21 09:51:20;;;;;;;2.17;1.80;;;23.10;46.10;;;;;;5033375;28;20196;-59
2023/07/21 09:53:48;;;;;;;6.80;2.87;;;23.40;45.80;;;;;;5038409;28;20434;-59
2023/07/21 09:56:16;;;;;;;2.33;2.10;;;23.50;44.70;;;;;;5041420;28;20504;-59
2023/07/21 09:58:50;;;;;;;3.23;2.33;;;23.50;44.90;;;;;;5032386;28;20445;-57
2023/07/21 10:01:16;;;;;;;5.73;3.20;;;23.30;44.70;;;;;;5041783;28;20418;-58
2023/07/21 10:03:42;;;;;;;3.00;2.53;;;23.20;45.20;;;;;;5039641;28;20441;-58
2023/07/21 10:06:08;;;;;;;2.77;2.57;;;23.00;45.20;;;;;;5030505;28;21027;-58
2023/07/21 10:08:36;;;;;;;4.77;2.57;;;22.90;45.00;;;;;;5041075;28;20183;-59
2023/07/21 10:11:04;;;;;;;2.50;2.10;;;22.70;45.10;;;;;;5035096;28;20939;-59
2023/07/21 10:13:31;;;;;;;3.20;2.20;;;22.60;45.50;;;;;;5040385;28;20973;-58
2023/07/21 10:16:07;;;;;;;3.20;2.47;;;22.40;45.60;;;;;;5040439;28;20485;-58
2023/07/21 10:18:33;;;;;;;3.80;2.33;;;22.30;46.10;;;;;;5045136;28;20425;-58
2023/07/21 10:21:00;;;;;;;8.53;2.50;;;22.10;46.00;;;;;;5041765;28;20819;-60
2023/07/21 10:23:31;;;;;;;4.53;2.53;;;22.00;45.70;;;;;;5039502;28;20210;-60
2023/07/21 10:26:08;;;;;;;3.57;2.50;;;21.90;46.10;;;;;;5038422;28;20502;-59
2023/07/21 10:28:44;;;;;;;4.30;2.53;;;21.80;46.80;;;;;;5039110;28;20426;-56
2023/07/21 10:31:25;;;;;;;7.13;2.77;;;21.80;46.60;;;;;;5038425;28;20452;-59
2023/07/21 10:34:06;;;;;;;3.17;2.40;;;21.70;46.60;;;;;;5038100;28;20430;-58
2023/07/21 10:36:38;;;;;;;4.20;2.67;;;21.70;46.90;;;;;;5041865;28;20468;-58
2023/07/21 10:39:10;;;;;;;3.50;2.70;;;21.70;47.60;;;;;;5034615;28;21046;-59
2023/07/21 10:41:37;;;;;;;2.70;2.13;;;21.70;47.20;;;;;;5040006;28;20429;-58
2023/07/21 10:44:06;;;;;;;4.37;2.50;;;21.70;47.50;;;;;;5036165;28;20430;-58
2023/07/21 10:46:36;;;;;;;4.03;2.60;;;21.70;47.20;;;;;;5036789;28;21024;-61
2023/07/21 10:49:02;;;;;;;3.50;3.00;;;21.70;47.70;;;;;;5033450;28;20441;-58
2023/07/21 10:51:29;;;;;;;7.63;3.00;;;21.70;47.70;;;;;;5037434;28;20985;-58
2023/07/21 10:53:54;;;;;;;3.47;2.47;;;21.60;47.50;;;;;;5034598;28;20268;-58
2023/07/21 10:56:21;;;;;;;4.33;2.60;;;21.60;47.80;;;;;;5032375;28;20524;-59
2023/07/21 10:58:48;;;;;;;5.60;3.13;;;21.60;48.10;;;;;;5044615;28;21071;-60
2023/07/21 11:01:20;;;;;;;8.03;2.80;;;21.60;48.50;;;;;;5041077;28;20417;-56
2023/07/21 11:03:46;;;;;;;4.53;2.43;;;21.50;49.00;;;;;;5037621;28;20445;-58
2023/07/21 11:06:12;;;;;;;6.77;2.90;;;21.50;49.40;;;;;;5032451;28;20484;-59
2023/07/21 11:08:38;;;;;;;6.33;2.70;;;21.50;49.90;;;;;;5036093;28;21004;-59
2023/07/21 11:11:04;;;;;;;13.93;3.00;;;21.40;50.50;;;;;;5033531;28;20460;-56
2023/07/21 11:13:29;;;;;;;6.80;3.30;;;21.40;50.80;;;;;;5035320;28;20246;-61
2023/07/21 11:15:56;;;;;;;6.43;2.70;;;21.40;51.10;;;;;;5040350;28;20607;-61
2023/07/21 11:18:22;;;;;;;7.43;3.43;;;21.40;51.40;;;;;;5033932;28;20512;-59
2023/07/21 11:20:54;;;;;;;6.00;3.00;;;21.40;51.60;;;;;;5036551;28;20445;-59
2023/07/21 11:23:21;;;;;;;10.53;2.80;;;21.40;52.10;;;;;;5037607;28;20434;-59
2023/07/21 11:26:06;;;;;;;9.87;3.70;;;21.40;52.00;;;;;;5030716;28;20516;-60
2023/07/21 11:28:33;;;;;;;6.80;3.33;;;21.40;52.10;;;;;;5031997;28;20417;-59
2023/07/21 11:31:02;;;;;;;5.50;2.80;;;21.40;52.60;;;;;;5035871;28;20454;-60
2023/07/21 11:33:44;;;;;;;7.80;3.90;;;21.30;52.90;;;;;;5040741;28;20479;-59
2023/07/21 11:36:18;;;;;;;5.60;3.00;;;21.20;53.60;;;;;;5036009;28;20425;-59
2023/07/21 11:39:04;;;;;;;8.67;4.23;;;21.10;55.10;;;;;;5041914;28;20440;-63
2023/07/21 11:41:41;;;;;;;16.93;4.07;;;21.00;59.40;;;;;;5039120;28;20528;-59
2023/07/21 11:44:20;;;;;;;10.23;3.50;;;20.70;62.10;;;;;;5039648;28;20447;-58
2023/07/21 11:47:10;;;;;;;5.40;3.77;;;20.40;64.70;;;;;;5036525;28;20465;-59
2023/07/21 11:49:42;;;;;;;6.10;4.13;;;20.00;66.10;;;;;;5030961;28;20526;-58
2023/07/21 11:52:09;;;;;;;8.40;3.83;;;19.70;69.30;;;;;;5040494;28;20491;-58
2023/07/21 11:54:43;;;;;;;6.70;3.93;;;19.50;70.60;;;;;;5038985;28;21231;-57
2023/07/21 11:57:10;;;;;;;7.63;3.73;;;19.20;73.00;;;;;;5038846;28;20469;-56
2023/07/21 11:59:36;;;;;;;4.47;4.03;;;19.10;79.60;;;;;;5041302;28;20437;-56
2023/07/21 12:02:04;;;;;;;7.70;4.00;;;19.00;85.50;;;;;;5042366;28;20540;-57
2023/07/21 12:04:30;;;;;;;5.00;3.83;;;18.90;87.50;;;;;;5040436;28;20838;-59
2023/07/21 12:06:56;;;;;;;10.37;4.73;;;18.80;90.40;;;;;;5038131;28;20469;-58
2023/07/21 12:09:22;;;;;;;7.00;3.63;;;18.70;96.60;;;;;;5041809;28;20446;-56
2023/07/21 12:11:48;;;;;;;5.73;4.47;;;18.70;99.90;;;;;;5034061;28;20194;-60
2023/07/21 12:14:16;;;;;;;6.93;3.97;;;18.60;99.90;;;;;;5035377;28;20430;-60
2023/07/21 12:16:42;;;;;;;8.43;4.40;;;18.50;99.80;;;;;;5029081;28;20299;-59
2023/07/21 12:19:09;;;;;;;5.37;3.60;;;18.50;99.90;;;;;;5036269;28;20426;-61
2023/07/21 12:21:35;;;;;;;6.70;3.97;;;18.40;99.90;;;;;;5040137;28;20175;-61
2023/07/21 12:24:03;;;;;;;8.43;4.00;;;18.40;99.90;;;;;;5040174;28;20438;-61
2023/07/21 12:26:28;;;;;;;6.60;3.70;;;18.40;99.90;;;;;;5044662;28;20481;-61
2023/07/21 12:28:55;;;;;;;5.67;3.73;;;18.30;99.90;;;;;;5046430;28;20430;-61
2023/07/21 12:31:21;;;;;;;10.70;4.10;;;18.30;99.90;;;;;;5045460;28;20237;-62
2023/07/21 12:33:48;;;;;;;4.50;3.57;;;18.30;99.90;;;;;;5040776;28;20449;-61
2023/07/21 12:36:18;;;;;;;4.90;3.80;;;18.30;99.90;;;;;;5040940;28;20799;-60
2023/07/21 12:38:44;;;;;;;6.07;3.87;;;18.40;99.90;;;;;;5035180;28;20457;-60
2023/07/21 12:41:10;;;;;;;4.93;3.80;;;18.50;99.90;;;;;;5042919;28;20438;-59
2023/07/21 12:43:37;;;;;;;10.90;3.90;;;18.70;99.90;;;;;;5040088;28;20465;-61
2023/07/21 12:46:04;;;;;;;4.03;3.40;;;19.00;99.90;;;;;;5036905;28;20434;-60